Time;durP1;ratioP1;P1;durP2;ratioP2;P2;SDS_P1;SDS_P2;PMS_P1;PMS_P2;Temp;Humidity;BMP_temperature;BMP_pressure;BME280_temperature;BME280_humidity;BME280_pressure;Samples;Min_cycle;Max_cycle;Signal;HPM_P1;HPM_P2
2022/04/21 00:00:54;;;;;;;7.60;4.87;;;10.20;1.00;;;;;;4998879;28;20508;-85
2022/04/21 00:03:31;;;;;;;9.70;4.97;;;10.20;1.00;;;;;;5007966;28;20462;-86
2022/04/21 00:06:00;;;;;;;5.73;4.70;;;10.20;1.00;;;;;;5009551;28;20473;-84
2022/04/21 00:08:30;;;;;;;9.47;5.10;;;10.10;1.00;;;;;;5015682;28;20427;-85
2022/04/21 00:11:00;;;;;;;10.13;5.47;;;10.10;1.00;;;;;;5007988;28;20461;-86
2022/04/21 00:13:33;;;;;;;9.20;4.87;;;10.10;1.00;;;;;;5003237;28;20459;-84
2022/04/21 00:16:12;;;;;;;8.73;4.20;;;10.10;1.00;;;;;;4999457;28;20479;-84
2022/04/21 00:18:50;;;;;;;6.50;4.70;;;10.00;1.00;;;;;;5002031;28;20844;-85
2022/04/21 00:21:18;;;;;;;9.77;5.27;;;10.00;1.00;;;;;;4999237;28;20480;-85
2022/04/21 00:23:44;;;;;;;7.23;4.87;;;10.00;1.00;;;;;;5002520;28;20474;-86
2022/04/21 00:26:13;;;;;;;10.23;5.33;;;10.00;1.00;;;;;;5007241;28;20487;-86
2022/04/21 00:28:41;;;;;;;7.63;4.47;;;9.90;1.00;;;;;;5005169;28;20548;-85
2022/04/21 00:31:09;;;;;;;8.17;4.50;;;9.90;1.00;;;;;;5000062;28;20524;-84
2022/04/21 00:33:41;;;;;;;8.33;4.80;;;9.90;1.00;;;;;;4993614;28;21268;-86
2022/04/21 00:36:07;;;;;;;6.40;4.30;;;9.90;1.00;;;;;;5007639;28;20903;-84
2022/04/21 00:38:41;;;;;;;7.50;4.70;;;9.90;1.00;;;;;;5005075;28;20454;-86
2022/04/21 00:41:08;;;;;;;12.53;4.43;;;9.90;1.00;;;;;;5000468;28;20524;-85
2022/04/21 00:43:36;;;;;;;6.77;4.67;;;9.90;1.00;;;;;;5006884;28;20462;-86
2022/04/21 00:46:03;;;;;;;6.60;4.87;;;9.80;1.00;;;;;;5004969;28;20489;-86
2022/04/21 00:48:32;;;;;;;10.13;5.93;;;9.80;1.00;;;;;;5004045;28;20498;-86
2022/04/21 00:51:01;;;;;;;9.83;5.17;;;9.70;1.00;;;;;;5004332;28;20442;-86
2022/04/21 00:53:28;;;;;;;12.80;4.87;;;9.70;1.00;;;;;;5001296;28;20446;-86
2022/04/21 00:55:58;;;;;;;6.60;5.53;;;9.70;1.00;;;;;;4995254;28;20474;-84
2022/04/21 00:58:31;;;;;;;9.17;5.20;;;9.70;1.00;;;;;;5001163;28;20501;-84
2022/04/21 01:02:46;;;;;;;9.50;5.47;;;9.70;1.00;;;;;;4999274;28;20499;-85
2022/04/21 01:03:52;;;;;;;6.00;4.50;;;9.60;1.00;;;;;;4988232;28;20576;-87
2022/04/21 01:06:23;;;;;;;11.73;5.73;;;9.60;1.00;;;;;;5003563;28;20473;-86
2022/04/21 01:08:51;;;;;;;9.70;4.90;;;9.50;1.00;;;;;;5004330;28;20435;-87
2022/04/21 01:11:22;;;;;;;8.20;4.93;;;9.40;1.00;;;;;;4996901;28;20537;-86
2022/04/21 01:13:49;;;;;;;9.30;4.67;;;9.30;1.00;;;;;;5001000;28;20821;-83
2022/04/21 01:16:22;;;;;;;7.40;4.50;;;9.30;1.00;;;;;;5002684;28;20472;-84
2022/04/21 01:18:52;;;;;;;9.17;4.73;;;9.40;1.00;;;;;;5002727;28;21646;-86
2022/04/21 01:21:23;;;;;;;8.90;4.40;;;9.40;1.00;;;;;;5000361;28;20422;-85
2022/04/21 01:23:50;;;;;;;6.80;4.23;;;9.40;1.00;;;;;;5007567;28;20459;-84
2022/04/21 01:26:25;;;;;;;9.83;4.90;;;9.30;1.00;;;;;;5003772;28;20444;-86
2022/04/21 01:28:52;;;;;;;7.47;4.60;;;9.40;1.00;;;;;;5000678;28;20475;-84
2022/04/21 01:31:22;;;;;;;6.95;5.18;;;9.40;1.00;;;;;;5026216;28;20422;-86
2022/04/21 01:33:50;;;;;;;10.27;4.87;;;9.40;1.00;;;;;;5033684;28;20317;-84
2022/04/21 01:36:23;;;;;;;7.57;4.55;;;9.40;1.00;;;;;;5045256;28;20440;-87
2022/04/21 01:41:34;;;;;;;11.48;5.47;;;9.40;1.00;;;;;;5044561;28;20425;-87
2022/04/21 01:44:03;;;;;;;7.53;5.23;;;9.40;1.00;;;;;;5042912;28;20392;-87
2022/04/21 01:46:31;;;;;;;6.47;5.03;;;9.30;1.00;;;;;;5032842;28;20596;-85
2022/04/21 01:49:01;;;;;;;6.77;5.40;;;9.30;1.00;;;;;;5021060;28;20445;-86
2022/04/21 01:51:29;;;;;;;7.37;4.67;;;9.30;1.00;;;;;;5029873;28;20461;-84
2022/04/21 01:53:56;;;;;;;7.43;5.17;;;9.30;1.00;;;;;;5017698;28;20497;-85
2022/04/21 01:56:24;;;;;;;7.30;5.20;;;9.30;1.00;;;;;;5032301;28;20421;-86
2022/04/21 01:58:50;;;;;;;7.70;5.07;;;9.30;1.00;;;;;;5036070;28;20451;-86
2022/04/21 02:01:21;;;;;;;6.97;5.28;;;9.30;1.00;;;;;;5030185;28;20416;-84
2022/04/21 02:03:48;;;;;;;10.37;6.57;;;9.30;1.00;;;;;;5023636;28;20959;-84
2022/04/21 02:06:14;;;;;;;10.77;4.80;;;9.30;1.00;;;;;;5025110;28;20479;-83
2022/04/21 02:08:43;;;;;;;9.50;6.60;;;9.30;1.00;;;;;;5023845;28;20442;-86
2022/04/21 02:11:11;;;;;;;9.23;6.28;;;9.20;1.00;;;;;;5026899;28;20432;-84
2022/04/21 02:13:41;;;;;;;7.68;5.45;;;9.20;1.00;;;;;;5017381;28;20240;-85
2022/04/21 02:16:07;;;;;;;8.50;5.53;;;9.20;1.00;;;;;;5020388;28;20229;-86
2022/04/21 02:18:34;;;;;;;8.67;4.70;;;9.20;1.00;;;;;;5025640;28;20467;-87
2022/04/21 02:21:03;;;;;;;8.60;5.90;;;9.20;1.00;;;;;;5022022;28;20445;-86
2022/04/21 02:23:30;;;;;;;9.90;5.43;;;9.20;1.00;;;;;;5020897;28;20429;-84
2022/04/21 02:26:01;;;;;;;8.70;5.50;;;9.20;1.00;;;;;;5022557;28;20457;-86
2022/04/21 02:28:28;;;;;;;9.23;5.13;;;9.30;1.00;;;;;;5018104;28;20908;-86
2022/04/21 02:30:54;;;;;;;9.60;5.72;;;9.20;1.00;;;;;;5024800;28;20495;-86
2022/04/21 02:33:22;;;;;;;9.87;5.47;;;9.20;1.00;;;;;;5020537;28;20229;-87
2022/04/21 02:35:48;;;;;;;11.77;8.30;;;9.20;1.00;;;;;;5020991;28;20506;-85
2022/04/21 02:38:22;;;;;;;7.77;5.90;;;9.30;1.00;;;;;;5025821;28;20488;-85
2022/04/21 02:40:49;;;;;;;8.43;6.47;;;9.30;1.00;;;;;;5024976;28;20465;-86
2022/04/21 02:43:23;;;;;;;13.17;5.97;;;9.20;1.00;;;;;;5017934;28;20497;-86
2022/04/21 02:45:50;;;;;;;10.40;5.83;;;9.20;1.00;;;;;;5021422;28;20495;-85
2022/04/21 02:48:22;;;;;;;8.70;5.57;;;9.20;1.00;;;;;;5026406;28;20470;-86
2022/04/21 02:50:50;;;;;;;7.00;5.70;;;9.20;1.00;;;;;;5022360;28;20457;-84
2022/04/21 02:58:54;;;;;;;9.25;5.72;;;9.20;1.00;;;;;;5022852;28;20558;-85
2022/04/21 03:01:22;;;;;;;10.35;5.78;;;9.20;1.00;;;;;;5020036;28;20233;-85
2022/04/21 03:03:51;;;;;;;7.63;5.47;;;9.20;1.00;;;;;;5016488;28;20320;-85
2022/04/21 03:06:21;;;;;;;9.87;6.50;;;9.20;1.00;;;;;;5017552;28;20483;-84
2022/04/21 03:08:51;;;;;;;7.55;5.38;;;9.20;1.00;;;;;;5017280;28;20662;-83
2022/04/21 03:11:23;;;;;;;10.40;5.72;;;9.10;1.00;;;;;;5022143;28;21260;-85
2022/04/21 03:13:51;;;;;;;10.00;6.20;;;9.20;1.00;;;;;;5026167;28;21118;-86
2022/04/21 03:16:22;;;;;;;11.27;6.57;;;9.20;1.00;;;;;;5020737;28;20477;-84
2022/04/21 03:18:48;;;;;;;7.40;5.50;;;9.20;1.00;;;;;;5019983;28;20495;-85
2022/04/21 03:26:46;;;;;;;11.13;5.90;;;9.20;1.00;;;;;;5015522;28;20471;-83
2022/04/21 03:29:13;;;;;;;9.70;6.07;;;9.20;1.00;;;;;;5026558;28;20477;-84
2022/04/21 03:31:44;;;;;;;8.40;5.65;;;9.20;1.00;;;;;;5029575;28;20413;-85
2022/04/21 03:34:12;;;;;;;10.77;6.57;;;9.10;1.00;;;;;;5025941;28;20255;-84
2022/04/21 03:36:45;;;;;;;13.37;5.60;;;9.10;1.00;;;;;;5024481;28;20488;-86
2022/04/21 03:39:12;;;;;;;7.80;5.50;;;9.10;1.00;;;;;;5027612;28;20480;-83
2022/04/21 03:41:45;;;;;;;7.55;6.60;;;9.00;1.00;;;;;;5022542;28;20460;-86
2022/04/21 03:44:13;;;;;;;14.60;7.20;;;9.10;1.00;;;;;;5027369;28;20312;-83
2022/04/21 03:46:44;;;;;;;9.77;6.67;;;9.00;1.00;;;;;;5029132;28;20449;-88
2022/04/21 03:49:10;;;;;;;11.80;6.37;;;9.00;1.00;;;;;;5026230;28;21086;-87
2022/04/21 03:51:42;;;;;;;9.00;6.73;;;9.10;1.00;;;;;;5025299;28;20432;-88
2022/04/21 03:54:09;;;;;;;11.97;6.80;;;9.10;1.00;;;;;;5023303;28;20482;-87
2022/04/21 03:56:37;;;;;;;11.80;6.43;;;9.10;1.00;;;;;;5027435;28;20910;-87
2022/04/21 03:59:04;;;;;;;13.00;6.80;;;9.00;1.00;;;;;;5033884;28;20472;-88
2022/04/21 04:01:30;;;;;;;10.20;6.40;;;9.00;1.00;;;;;;5024206;28;20507;-88
2022/04/21 04:04:03;;;;;;;9.70;6.30;;;9.00;1.00;;;;;;5020071;28;20503;-85
2022/04/21 04:12:08;;;;;;;9.97;7.37;;;9.00;1.00;;;;;;5019522;28;20519;-86
2022/04/21 04:14:35;;;;;;;11.73;7.20;;;9.00;1.00;;;;;;5022585;28;20490;-85
2022/04/21 04:17:05;;;;;;;8.60;6.90;;;9.00;1.00;;;;;;5021367;28;20440;-89
2022/04/21 04:19:33;;;;;;;8.83;5.80;;;9.10;1.00;;;;;;5021913;28;20498;-84
2022/04/21 04:22:03;;;;;;;10.00;6.93;;;9.10;1.00;;;;;;5022168;28;22447;-87
2022/04/21 04:24:30;;;;;;;11.90;8.50;;;9.10;1.00;;;;;;5022045;28;21236;-88
2022/04/21 04:27:02;;;;;;;10.10;7.00;;;9.10;1.00;;;;;;5021999;28;20433;-86
2022/04/21 04:29:30;;;;;;;9.73;7.27;;;9.20;1.00;;;;;;5017942;28;20575;-86
2022/04/21 04:32:01;;;;;;;12.07;7.30;;;9.10;1.00;;;;;;5032855;28;20433;-86
2022/04/21 04:34:28;;;;;;;9.80;6.67;;;9.10;1.00;;;;;;5023220;28;20253;-84
2022/04/21 04:36:59;;;;;;;16.07;7.63;;;9.10;1.00;;;;;;5025163;28;20509;-85
2022/04/21 04:39:31;;;;;;;8.43;6.87;;;9.10;1.00;;;;;;5022085;28;20505;-85
2022/04/21 04:44:48;;;;;;;13.30;7.60;;;9.10;1.00;;;;;;5027535;28;20260;-84
2022/04/21 04:47:14;;;;;;;11.37;8.03;;;9.10;1.00;;;;;;5035234;28;20544;-88
2022/04/21 04:49:42;;;;;;;10.53;6.20;;;9.10;1.00;;;;;;5043737;28;20488;-88
2022/04/21 04:52:10;;;;;;;9.80;6.40;;;9.10;1.00;;;;;;5037806;28;20264;-84
2022/04/21 04:54:42;;;;;;;14.43;8.50;;;9.10;1.00;;;;;;5022790;28;20508;-84
2022/04/21 04:57:08;;;;;;;10.27;6.57;;;9.10;1.00;;;;;;5027904;28;20580;-84
2022/04/21 04:59:35;;;;;;;11.47;7.10;;;9.10;1.00;;;;;;5021612;28;20489;-84
2022/04/21 05:02:02;;;;;;;11.00;6.90;;;9.10;1.00;;;;;;5019085;28;20655;-87
2022/04/21 05:04:29;;;;;;;16.50;7.00;;;9.20;1.00;;;;;;5021545;28;20495;-87
2022/04/21 05:07:02;;;;;;;10.37;7.20;;;9.20;1.00;;;;;;5025864;28;21311;-85
2022/04/21 05:09:30;;;;;;;11.23;6.57;;;9.20;1.00;;;;;;5029123;28;20606;-85
2022/04/21 05:12:02;;;;;;;11.93;7.00;;;9.20;1.00;;;;;;5028275;28;20507;-85
2022/04/21 05:14:29;;;;;;;11.82;7.25;;;9.20;1.00;;;;;;5025065;28;20503;-85
2022/04/21 05:16:57;;;;;;;12.90;7.27;;;9.20;1.00;;;;;;5030409;28;20338;-86
2022/04/21 05:19:25;;;;;;;10.23;6.55;;;9.20;1.00;;;;;;5030248;28;20571;-86
2022/04/21 05:21:53;;;;;;;10.68;7.07;;;9.30;1.00;;;;;;5035916;28;20321;-86
2022/04/21 05:24:25;;;;;;;10.75;7.40;;;9.30;1.00;;;;;;5033153;28;20324;-86
2022/04/21 05:26:54;;;;;;;13.27;6.80;;;9.40;1.00;;;;;;5022880;28;20288;-87
2022/04/21 05:32:23;;;;;;;11.32;6.80;;;9.40;1.00;;;;;;5019666;28;20459;-88
2022/04/21 05:34:51;;;;;;;10.50;7.97;;;9.30;1.00;;;;;;5026595;28;20354;-87
2022/04/21 05:37:24;;;;;;;11.53;7.30;;;9.40;1.00;;;;;;5022974;28;20429;-86
2022/04/21 05:40:13;;;;;;;9.03;7.23;;;9.40;1.00;;;;;;5023642;28;20477;-86
2022/04/21 05:42:51;;;;;;;12.63;7.20;;;9.40;1.00;;;;;;5023113;28;20461;-80
2022/04/21 05:45:42;;;;;;;11.17;7.47;;;9.40;1.00;;;;;;5024789;28;20422;-84
2022/04/21 05:51:15;;;;;;;10.43;7.50;;;9.40;1.00;;;;;;5013723;28;20587;-82
2022/04/21 05:54:14;;;;;;;18.13;8.18;;;9.40;1.00;;;;;;4998363;28;20480;-84
2022/04/21 06:15:06;;;;;;;14.50;8.00;;;9.60;1.00;;;;;;3090431;26;20477;-81
2022/04/21 06:17:33;;;;;;;11.50;7.87;;;9.70;1.00;;;;;;4973399;28;21218;-80
2022/04/21 06:49:06;;;;;;;11.30;6.53;;;11.10;1.00;;;;;;4988060;28;20657;-82
2022/04/21 06:51:44;;;;;;;12.63;8.00;;;11.20;1.00;;;;;;4987357;28;20502;-81
2022/04/21 06:54:14;;;;;;;10.37;6.50;;;11.30;1.00;;;;;;4991558;28;20471;-82
2022/04/21 06:56:48;;;;;;;14.77;10.30;;;11.50;1.00;;;;;;4987947;28;20451;-82
2022/04/21 06:59:27;;;;;;;10.50;6.83;;;11.60;1.00;;;;;;4983472;28;20467;-82
2022/04/21 07:02:31;;;;;;;13.30;6.10;;;11.60;1.00;;;;;;4996235;28;21107;-82
2022/04/21 07:05:51;;;;;;;;;;;;;;;;;;;;;
2022/04/21 07:08:28;;;;;;;11.10;5.90;;;11.90;1.00;;;;;;4874348;29;49897;-81
2022/04/21 07:11:26;;;;;;;;;;;;;;;;;;;;;
2022/04/21 07:13:55;;;;;;;10.80;7.40;;;11.90;1.00;;;;;;4963835;28;48537;-84
2022/04/21 07:16:25;;;;;;;10.50;7.47;;;11.90;1.00;;;;;;4988606;28;20457;-82
2022/04/21 07:18:53;;;;;;;11.57;6.80;;;11.90;1.00;;;;;;4987556;28;20455;-81
2022/04/21 07:21:23;;;;;;;12.77;6.70;;;11.90;1.00;;;;;;5003000;28;20442;-79
2022/04/21 07:23:50;;;;;;;11.20;7.80;;;11.90;1.00;;;;;;5002122;28;20612;-81
2022/04/21 07:26:18;;;;;;;12.47;6.90;;;11.80;1.00;;;;;;4999525;28;21507;-79
2022/04/21 07:28:46;;;;;;;9.13;6.57;;;11.80;1.00;;;;;;4996985;28;20538;-79
2022/04/21 07:31:12;;;;;;;10.07;6.50;;;11.60;1.00;;;;;;4992566;28;20459;-79
2022/04/21 07:33:44;;;;;;;13.07;6.73;;;11.60;1.00;;;;;;4980685;28;21403;-80
2022/04/21 07:36:11;;;;;;;10.03;6.47;;;11.50;1.00;;;;;;4979453;28;21533;-80
2022/04/21 07:38:42;;;;;;;8.13;6.30;;;11.40;1.00;;;;;;4981209;28;20533;-80
2022/04/21 07:41:09;;;;;;;11.27;6.90;;;11.40;1.00;;;;;;4981249;28;20641;-80
2022/04/21 07:43:37;;;;;;;13.90;7.60;;;11.30;1.00;;;;;;4972387;28;20463;-80
2022/04/21 07:46:05;;;;;;;11.50;7.00;;;11.20;1.00;;;;;;4997042;28;20473;-82
2022/04/21 07:51:15;;;;;;;11.03;6.73;;;11.30;1.00;;;;;;4991363;28;20459;-82
2022/04/21 07:53:42;;;;;;;9.60;6.77;;;11.30;1.00;;;;;;4983381;28;20464;-82
2022/04/21 07:56:15;;;;;;;12.57;6.77;;;11.40;1.00;;;;;;5001539;28;20495;-81
2022/04/21 07:58:44;;;;;;;22.77;12.00;;;11.30;1.00;;;;;;4985930;28;20465;-82
2022/04/21 08:01:13;;;;;;;15.13;7.60;;;11.40;1.00;;;;;;4986727;28;20443;-83
2022/04/21 08:03:44;;;;;;;15.13;7.93;;;11.40;1.00;;;;;;4982523;28;20471;-83
2022/04/21 08:06:12;;;;;;;10.50;6.30;;;11.40;1.00;;;;;;4988183;28;20446;-82
2022/04/21 08:08:44;;;;;;;9.20;6.60;;;11.40;1.00;;;;;;4983076;28;20409;-83
2022/04/21 08:11:13;;;;;;;11.77;7.50;;;11.40;1.00;;;;;;4991765;28;20549;-83
2022/04/21 08:13:47;;;;;;;13.33;6.90;;;11.50;1.00;;;;;;4989895;28;20419;-82
2022/04/21 08:16:14;;;;;;;14.63;9.13;;;11.50;1.00;;;;;;4988633;28;20456;-83
2022/04/21 08:18:52;;;;;;;11.77;6.60;;;11.60;1.00;;;;;;4991560;28;20419;-81
2022/04/21 08:21:24;;;;;;;10.90;7.43;;;11.60;1.00;;;;;;4999442;28;20423;-81
2022/04/21 08:32:33;;;;;;;12.20;8.37;;;11.70;1.00;;;;;;4992692;28;20442;-81
2022/04/21 08:35:13;;;;;;;13.63;7.73;;;12.10;1.00;;;;;;4987522;28;21741;-83
2022/04/21 08:37:50;;;;;;;11.83;7.90;;;12.20;1.00;;;;;;4985624;28;20431;-82
2022/04/21 08:40:27;;;;;;;10.97;7.70;;;12.40;1.00;;;;;;4989705;28;20490;-83
2022/04/21 08:42:55;;;;;;;11.00;7.70;;;12.60;1.00;;;;;;4996018;28;20430;-85
2022/04/21 08:45:24;;;;;;;11.80;8.50;;;13.00;1.00;;;;;;5003973;28;20415;-82
2022/04/21 08:47:57;;;;;;;9.57;6.57;;;13.20;1.00;;;;;;4988620;28;20432;-82
2022/04/21 08:50:26;;;;;;;11.30;7.20;;;13.20;1.00;;;;;;4989810;28;21342;-81
2022/04/21 08:52:54;;;;;;;10.80;7.27;;;13.20;1.00;;;;;;4994544;28;20531;-83
2022/04/21 08:55:24;;;;;;;7.87;6.40;;;13.10;1.00;;;;;;4993043;28;20455;-83
2022/04/21 08:57:53;;;;;;;10.50;7.27;;;13.10;1.00;;;;;;4991880;28;20435;-85
2022/04/21 09:00:33;;;;;;;14.63;7.40;;;13.10;1.00;;;;;;4990721;28;20463;-81
2022/04/21 09:03:06;;;;;;;11.73;8.23;;;13.20;1.00;;;;;;5005477;28;20449;-83
2022/04/21 09:05:33;;;;;;;13.53;8.37;;;13.20;1.00;;;;;;5011907;28;20470;-82
2022/04/21 09:08:04;;;;;;;11.83;7.80;;;13.20;1.00;;;;;;5013391;28;20509;-82
2022/04/21 09:10:33;;;;;;;13.50;7.53;;;13.20;1.00;;;;;;5004101;28;20476;-84
2022/04/21 09:13:04;;;;;;;10.77;7.47;;;13.50;1.00;;;;;;5009217;28;20477;-82
2022/04/21 09:15:36;;;;;;;8.80;7.83;;;13.60;1.00;;;;;;5008178;28;20411;-83
2022/04/21 09:18:14;;;;;;;11.93;7.97;;;13.80;1.00;;;;;;5000921;28;20535;-83
2022/04/21 09:20:53;;;;;;;13.93;8.30;;;13.90;1.00;;;;;;4995823;28;20461;-81
2022/04/21 09:23:33;;;;;;;9.00;7.37;;;13.80;1.00;;;;;;5017511;28;20459;-79
2022/04/21 09:26:09;;;;;;;11.90;8.07;;;13.60;1.00;;;;;;4990878;28;21869;-82
2022/04/21 09:28:36;;;;;;;11.63;7.40;;;13.70;1.00;;;;;;4988840;28;20549;-82
2022/04/21 09:31:09;;;;;;;10.63;8.07;;;13.70;1.00;;;;;;4989175;28;20407;-84
2022/04/21 09:33:44;;;;;;;9.40;8.40;;;13.70;1.00;;;;;;4986906;28;20566;-81
2022/04/21 09:36:11;;;;;;;11.37;8.40;;;13.50;1.00;;;;;;5000820;28;21388;-83
2022/04/21 09:39:06;;;;;;;;;;;;;;;;;;;;;
2022/04/21 09:41:35;;;;;;;14.20;8.30;;;13.30;1.00;;;;;;4993167;28;41713;-82
2022/04/21 09:46:56;;;;;;;13.20;10.50;;;13.70;1.00;;;;;;5003802;28;20455;-84
2022/04/21 09:49:46;;;;;;;10.57;8.10;;;14.00;1.00;;;;;;5005021;28;20458;-83
2022/04/21 09:52:14;;;;;;;10.73;7.97;;;14.20;1.00;;;;;;4990718;28;20547;-82
2022/04/21 09:54:45;;;;;;;10.77;8.60;;;14.40;1.00;;;;;;5003843;28;20438;-83
2022/04/21 09:57:13;;;;;;;12.30;9.57;;;14.40;1.00;;;;;;5014643;28;20519;-83
2022/04/21 09:59:44;;;;;;;10.43;9.30;;;14.40;1.00;;;;;;5022559;28;20457;-83
2022/04/21 10:02:14;;;;;;;10.93;9.50;;;14.20;1.00;;;;;;5000869;28;20416;-83
2022/04/21 10:04:46;;;;;;;13.87;10.53;;;14.10;1.00;;;;;;4998828;28;20500;-83
2022/04/21 10:07:13;;;;;;;11.37;10.17;;;14.00;1.00;;;;;;4992526;28;20424;-82
2022/04/21 10:09:46;;;;;;;15.07;10.00;;;13.80;1.00;;;;;;4998140;28;20487;-82
2022/04/21 10:12:16;;;;;;;13.90;10.80;;;13.70;1.00;;;;;;5002470;28;20493;-82
2022/04/21 10:14:44;;;;;;;14.27;11.10;;;13.50;1.00;;;;;;5006314;28;20450;-81
2022/04/21 10:17:23;;;;;;;14.73;11.23;;;13.30;1.00;;;;;;5003231;28;20428;-82
2022/04/21 10:19:50;;;;;;;11.90;10.40;;;13.10;1.00;;;;;;5012824;28;20475;-83
2022/04/21 10:22:23;;;;;;;14.07;11.63;;;13.00;1.00;;;;;;5016822;28;20498;-83
2022/04/21 10:24:54;;;;;;;12.07;10.80;;;12.80;1.00;;;;;;5013651;28;21238;-83
2022/04/21 10:27:46;;;;;;;14.90;11.27;;;12.80;1.00;;;;;;5015876;28;20572;-84
2022/04/21 10:30:23;;;;;;;12.53;11.17;;;12.80;1.00;;;;;;5007520;28;20463;-82
2022/04/21 10:32:53;;;;;;;13.10;10.60;;;12.90;1.00;;;;;;5020255;28;20415;-80
2022/04/21 10:35:48;;;;;;;11.80;10.03;;;13.10;1.00;;;;;;5006805;28;20443;-81
2022/04/21 10:38:26;;;;;;;12.03;10.83;;;13.10;1.00;;;;;;5018803;28;20482;-82
2022/04/21 10:41:07;;;;;;;12.50;11.20;;;13.10;1.00;;;;;;5019774;28;20435;-82
2022/04/21 10:44:05;;;;;;;14.00;12.67;;;13.10;1.00;;;;;;5011963;28;20469;-83
2022/04/21 10:46:33;;;;;;;12.40;11.20;;;13.30;1.00;;;;;;5027716;28;20442;-84
2022/04/21 10:49:12;;;;;;;14.60;11.43;;;13.40;1.00;;;;;;5030958;28;20507;-82
2022/04/21 10:58:49;;;;;;;10.80;9.77;;;13.60;1.00;;;;;;5027475;28;20471;-82
2022/04/21 11:01:28;;;;;;;12.30;10.50;;;13.50;1.00;;;;;;5023025;28;20490;-83
2022/04/21 11:04:25;;;;;;;12.20;10.97;;;13.50;1.00;;;;;;5030131;28;20441;-81
2022/04/21 11:06:54;;;;;;;16.20;10.20;;;13.70;1.00;;;;;;5025730;28;20432;-81
2022/04/21 11:09:46;;;;;;;13.50;10.70;;;14.20;1.00;;;;;;5024667;28;20431;-83
2022/04/21 11:12:16;;;;;;;21.30;19.43;;;14.80;1.00;;;;;;5013350;28;20429;-82
2022/04/21 11:14:44;;;;;;;12.30;11.00;;;15.20;1.00;;;;;;5026277;28;20428;-81
2022/04/21 11:17:16;;;;;;;11.67;9.57;;;15.60;1.00;;;;;;5024996;28;20561;-81
2022/04/21 11:19:53;;;;;;;11.37;10.23;;;15.90;1.00;;;;;;5018565;28;21106;-82
2022/04/21 11:22:42;;;;;;;11.13;9.63;;;16.10;1.00;;;;;;5023169;28;20464;-81
2022/04/21 11:25:13;;;;;;;13.20;10.47;;;15.90;1.00;;;;;;4995938;28;20442;-81
2022/04/21 11:27:45;;;;;;;11.80;9.73;;;15.90;1.00;;;;;;5003899;28;20460;-82
2022/04/21 11:30:14;;;;;;;10.73;9.63;;;16.00;1.00;;;;;;5001409;28;20448;-83
2022/04/21 11:32:56;;;;;;;13.57;9.33;;;16.00;1.00;;;;;;4999568;28;20422;-81
2022/04/21 11:35:26;;;;;;;10.17;9.20;;;16.00;1.00;;;;;;5002575;28;20427;-81
2022/04/21 11:37:55;;;;;;;11.10;9.40;;;15.80;1.00;;;;;;5010137;28;20432;-82
2022/04/21 11:40:27;;;;;;;9.77;8.80;;;15.50;1.00;;;;;;5010753;28;20464;-82
2022/04/21 11:42:56;;;;;;;11.07;8.50;;;15.20;1.00;;;;;;5023444;28;20467;-82
2022/04/21 11:45:28;;;;;;;10.60;9.50;;;14.80;1.00;;;;;;5021969;28;20419;-82
2022/04/21 11:48:07;;;;;;;;;;;;;;;;;;;;;
2022/04/21 11:50:34;;;;;;;11.03;9.00;;;14.40;1.00;;;;;;5003370;28;41258;-82
2022/04/21 11:53:17;;;;;;;9.80;8.90;;;14.30;1.00;;;;;;4986726;28;20467;-82
2022/04/21 11:55:44;;;;;;;10.10;9.20;;;14.10;1.00;;;;;;4993730;28;20472;-82
2022/04/21 11:58:27;;;;;;;9.80;8.90;;;13.90;1.00;;;;;;4993327;28;20429;-83
2022/04/21 12:06:44;;;;;;;11.00;8.53;;;14.10;1.00;;;;;;4954418;28;20544;-82
2022/04/21 12:09:15;;;;;;;8.70;7.90;;;14.20;1.00;;;;;;4992565;28;20486;-83
2022/04/21 12:11:49;;;;;;;9.80;8.90;;;14.20;1.00;;;;;;4990778;28;20479;-82
2022/04/21 12:14:16;;;;;;;9.90;8.90;;;14.30;1.00;;;;;;4987886;28;20469;-81
2022/04/21 12:16:47;;;;;;;9.23;8.30;;;14.40;1.00;;;;;;4994323;28;20429;-82
2022/04/21 12:19:38;;;;;;;9.03;8.13;;;14.50;1.00;;;;;;4984450;28;20477;-82
2022/04/21 12:22:07;;;;;;;10.07;8.63;;;14.50;1.00;;;;;;4981027;28;20502;-82
2022/04/21 12:24:45;;;;;;;10.07;9.17;;;14.30;1.00;;;;;;5006302;28;20454;-81
2022/04/21 12:27:16;;;;;;;11.20;7.67;;;14.30;1.00;;;;;;4987182;28;20428;-83
2022/04/21 12:30:05;;;;;;;9.40;7.13;;;14.40;1.00;;;;;;4987104;28;20448;-82
2022/04/21 12:32:38;;;;;;;8.37;7.57;;;14.50;1.00;;;;;;4982781;28;20423;-82
2022/04/21 12:35:18;;;;;;;9.33;8.30;;;14.60;1.00;;;;;;4982883;28;20628;-83
2022/04/21 12:38:50;;;;;;;9.17;8.07;;;14.60;1.00;;;;;;4983554;28;20464;-83
2022/04/21 12:40:44;;;;;;;8.57;7.70;;;14.60;1.00;;;;;;5006803;28;20433;-82
2022/04/21 12:43:13;;;;;;;8.33;7.53;;;14.70;1.00;;;;;;5008583;28;21008;-82
2022/04/21 12:45:44;;;;;;;10.37;7.80;;;14.50;1.00;;;;;;5011303;28;20423;-82
2022/04/21 12:48:31;;;;;;;9.00;6.97;;;14.30;1.00;;;;;;5006409;28;20484;-81
2022/04/21 12:51:28;;;;;;;10.07;8.80;;;14.30;1.00;;;;;;4996947;28;20448;-81
2022/04/21 12:53:57;;;;;;;7.90;7.20;;;14.20;1.00;;;;;;4990214;28;20467;-82
2022/04/21 12:56:38;;;;;;;8.10;7.33;;;14.10;1.00;;;;;;4984624;28;20456;-83
2022/04/21 12:59:06;;;;;;;8.00;7.30;;;13.90;1.00;;;;;;4997063;28;20541;-82
2022/04/21 13:01:34;;;;;;;13.43;9.83;;;13.90;1.00;;;;;;5008694;28;20848;-82
2022/04/21 13:04:04;;;;;;;8.57;7.77;;;13.90;1.00;;;;;;5009363;28;20474;-82
2022/04/21 13:06:32;;;;;;;8.03;7.23;;;13.70;1.00;;;;;;5006863;28;20590;-82
2022/04/21 13:09:11;;;;;;;8.40;7.60;;;13.60;1.00;;;;;;5007134;28;20447;-83
2022/04/21 13:11:37;;;;;;;8.53;7.57;;;13.40;1.00;;;;;;5007664;28;20454;-81
2022/04/21 13:14:07;;;;;;;8.83;7.10;;;13.40;1.00;;;;;;5007250;28;20524;-81
2022/04/21 13:16:37;;;;;;;8.30;7.40;;;13.30;1.00;;;;;;5011552;28;20470;-81
2022/04/21 13:19:07;;;;;;;8.70;7.57;;;13.40;1.00;;;;;;5008713;28;20463;-82
2022/04/21 13:21:55;;;;;;;10.83;8.30;;;13.40;1.00;;;;;;5002318;28;20532;-80
2022/04/21 13:24:26;;;;;;;9.10;7.33;;;13.40;1.00;;;;;;4995408;28;21201;-84
2022/04/21 13:26:55;;;;;;;8.30;7.47;;;13.50;1.00;;;;;;4996198;28;20499;-82
2022/04/21 13:29:27;;;;;;;8.10;7.40;;;13.50;1.00;;;;;;5004799;28;20916;-82
2022/04/21 13:34:57;;;;;;;;;;;;;;;;;;;;;
2022/04/21 13:37:46;;;;;;;7.70;6.90;;;13.40;1.00;;;;;;4997904;28;41700;-83
2022/04/21 13:40:13;;;;;;;9.17;8.13;;;13.40;1.00;;;;;;5004309;28;20502;-81
2022/04/21 13:42:49;;;;;;;9.30;8.40;;;13.40;1.00;;;;;;4988779;28;20451;-82
2022/04/21 13:45:16;;;;;;;11.30;8.27;;;13.50;1.00;;;;;;5009686;28;21207;-82
2022/04/21 13:47:44;;;;;;;9.90;8.50;;;13.50;1.00;;;;;;5000468;28;20457;-82
2022/04/21 13:50:11;;;;;;;9.53;8.53;;;13.50;1.00;;;;;;5007019;28;20493;-81
2022/04/21 13:52:46;;;;;;;10.07;9.13;;;13.60;1.00;;;;;;5001722;28;20506;-82
2022/04/21 13:55:15;;;;;;;10.10;9.10;;;13.60;1.00;;;;;;4998651;28;20466;-81
2022/04/21 13:57:44;;;;;;;10.37;9.27;;;13.70;1.00;;;;;;4995459;28;20435;-83
2022/04/21 14:00:12;;;;;;;9.77;8.70;;;13.80;1.00;;;;;;4993069;28;20474;-82
2022/04/21 14:02:44;;;;;;;9.53;8.63;;;13.70;1.00;;;;;;4987259;28;20475;-82
2022/04/21 14:05:11;;;;;;;9.03;8.13;;;13.60;1.00;;;;;;4991688;28;20476;-83
2022/04/21 14:07:44;;;;;;;9.60;8.70;;;13.70;1.00;;;;;;4990723;28;20428;-80
2022/04/21 14:10:11;;;;;;;10.23;9.23;;;13.60;1.00;;;;;;4989897;28;20429;-82
2022/04/21 14:12:46;;;;;;;11.60;10.50;;;13.50;1.00;;;;;;4991522;28;20408;-81
2022/04/21 14:18:05;;;;;;;10.80;9.77;;;13.30;1.00;;;;;;4995750;28;20435;-83
2022/04/21 14:26:46;;;;;;;10.50;9.40;;;12.90;1.00;;;;;;4968408;28;20451;-82
2022/04/21 14:29:13;;;;;;;10.50;9.40;;;12.90;1.00;;;;;;4991639;28;20450;-80
2022/04/21 14:31:45;;;;;;;11.03;10.00;;;12.90;1.00;;;;;;4972362;28;20444;-81
2022/04/21 14:34:15;;;;;;;10.73;9.50;;;12.90;1.00;;;;;;4977718;28;20558;-82
2022/04/21 14:36:45;;;;;;;11.83;10.00;;;13.00;1.00;;;;;;4976693;28;20569;-81
2022/04/21 14:44:56;;;;;;;11.80;10.70;;;13.40;1.00;;;;;;4986567;28;20626;-81
2022/04/21 14:47:24;;;;;;;10.80;9.80;;;13.60;1.00;;;;;;4998063;28;20534;-80
2022/04/21 14:50:05;;;;;;;11.73;10.60;;;13.70;1.00;;;;;;4983315;28;20540;-80
2022/04/21 14:52:37;;;;;;;10.40;9.40;;;13.70;1.00;;;;;;4991957;28;20455;-81
2022/04/21 14:55:11;;;;;;;11.63;10.30;;;13.70;1.00;;;;;;4987297;28;20408;-80
2022/04/21 14:57:56;;;;;;;11.03;10.00;;;13.70;1.00;;;;;;4980913;28;20490;-82
2022/04/21 15:00:36;;;;;;;10.53;9.47;;;13.70;1.00;;;;;;4996036;28;20452;-81
2022/04/21 15:03:14;;;;;;;11.00;9.73;;;13.60;1.00;;;;;;5004618;28;20427;-80
2022/04/21 15:05:55;;;;;;;11.70;10.60;;;13.50;1.00;;;;;;4998211;28;20462;-82
2022/04/21 15:08:37;;;;;;;10.60;9.60;;;13.50;1.00;;;;;;5000626;28;20633;-82
2022/04/21 15:11:14;;;;;;;11.90;10.83;;;13.40;1.00;;;;;;5002629;28;24654;-81
2022/04/21 15:13:47;;;;;;;12.07;10.93;;;13.20;1.00;;;;;;5000240;28;21890;-80
2022/04/21 15:16:15;;;;;;;11.50;10.50;;;13.20;1.00;;;;;;5002224;28;20483;-81
2022/04/21 15:18:44;;;;;;;11.93;10.93;;;13.20;1.00;;;;;;5003497;28;20469;-82
2022/04/21 15:21:20;;;;;;;10.73;9.60;;;13.20;1.00;;;;;;4983586;28;20414;-78
2022/04/21 15:23:48;;;;;;;11.23;10.10;;;13.30;1.00;;;;;;4965690;28;20451;-81
2022/04/21 15:26:46;;;;;;;;;;;;;;;;;;;;;